x

Neah Bay, - 6nm North Of Cape Flattery, Wa (traffic Separation Lighted Buoy) (46087) Wave Buoy

8:50am - Tue 16th Oct 2018 All times are PDT. -7 hours from GMT.

  • Sig Wave height 3.3ft
  • Swell Direction
  • Peak Period 11s
  • Average Period 6s
  • Wind
    22mph, 25mph gusts
  • Sea Temp 49°f
  • Air Temp 52°f
  • Sea Pressure 1024.3mb
  • Neah Bay, - 6nm North Of Cape Flattery, Wa     (traffic Separation Lighted Buoy)
  • Neah Bay, - 6nm North Of Cape Flattery, Wa     (traffic Separation Lighted Buoy)

More Historic Weather Station data

Upgrade to MSW Pro to gain access to the past 30 days of data for over 8000 Wavebouys and Weather Stations around the globe.

Join

Comparision Forecast

View Surf forecast
   
Tue 10/16 8:50am 3.5ft 11s 6s 22 25 mph 1024.3mb 49f 52f
8:20am 3.5ft 16s 6s 22 27 mph 1024.2mb 49f 52f
7:50am 3.5ft 11s 6s 22 25 mph 1024.1mb 49f 52f
7:20am 3ft 11s 5s 22 27 mph 1024.1mb 49f 52f
6:50am 3.5ft 11s 6s 22 27 mph 1024.1mb 50f 52f
6:20am 3.5ft 11s 5s 22 25 mph 1024.1mb 50f 51f
5:50am 3.5ft 11s 5s 22 25 mph 1024.1mb 50f 51f
5:20am 3.5ft 11s 5s 22 25 mph 1024.2mb 50f 52f
4:50am 3.5ft 11s 6s 20 25 mph 1024.3mb 50f 52f
4:20am 3.5ft 11s 6s 20 22 mph 1024.4mb 50f 52f
3:50am 3.5ft 11s 6s 20 22 mph 1024.7mb 50f 52f
3:20am 3ft 11s 6s 20 22 mph 1024.7mb 50f 52f
2:50am 3.5ft 11s 6s 20 22 mph 1024.8mb 50f 52f
2:20am 3.5ft 10s 6s 20 22 mph 1025mb 50f 51f
1:50am 3.5ft 11s 6s 20 25 mph 1024.9mb 50f 52f
1:20am 3.5ft 11s 7s 20 22 mph 1025.1mb 50f 53f
12:20am 3.5ft 11s 8s 16 18 mph 1025.5mb 50f 52f
Mon 10/15 11:50pm 3.5ft 11s 8s 18 20 mph 1025.3mb 50f 53f
11:20pm 3.5ft 11s 9s 16 18 mph 1025.3mb 50f 53f
10:50pm 3ft 12s 7s 18 20 mph 1025.2mb 50f 53f
10:20pm 3.5ft 11s 8s 16 18 mph 1025.1mb 50f 54f
9:50pm 3.5ft 11s 7s 18 20 mph 1025mb 50f 54f
9:20pm 3.5ft 10s 7s 18 20 mph 1024.9mb 50f 54f
8:50pm 3ft 16s 6s 20 22 mph 1024.7mb 50f 54f
8:20pm 3.5ft 11s 6s 18 20 mph 1024.8mb 50f 54f
7:50pm 3.5ft 11s 6s 18 22 mph 1024.5mb 50f 54f
7:20pm 3.5ft 11s 6s 18 20 mph 1024.6mb 50f 53f
6:50pm 3.5ft 11s 6s 18 20 mph 1024.6mb 50f 53f
6:20pm 3ft 10s 6s 18 20 mph 1024.7mb 50f 53f
5:50pm 3.5ft 11s 6s 18 20 mph 1024.7mb 50f 53f
5:20pm 3ft 11s 5s 20 22 mph 1024.7mb 50f 53f
4:50pm 3.5ft 11s 6s 20 22 mph 1024.9mb 50f 53f
4:20pm 3.5ft 11s 6s 16 18 mph 1025.3mb 50f 53f
3:50pm 3ft 11s 5s 16 20 mph 1025.5mb 50f 53f
3:20pm 3.5ft 11s 6s 18 20 mph 1025.7mb 50f 53f
1:50pm 3.5ft 11s 6s 20 22 mph 1026.3mb 50f 52f
1:20pm 3.5ft 11s 7s 20 25 mph 1026.5mb 50f 52f
12:50pm 3.5ft 11s 6s 22 27 mph 1026.5mb 50f 52f
12:20pm 3.5ft 11s 7s 20 25 mph 1026.9mb 50f 52f
11:50am 3.5ft 11s 7s 18 20 mph 1027.1mb 50f 51f
11:20am 3.5ft 11s 7s 18 20 mph 1027mb 50f 51f
10:50am 3.5ft 11s 6s 16 18 mph 1027.2mb 50f 51f
10:20am 3.5ft 12s 7s 16 20 mph 1027.3mb 50f 51f
9:50am 3ft 10s 6s 16 18 mph 1027.2mb 50f 50f
9:20am 3.5ft 11s 6s 18 20 mph 1027mb 50f 50f
8:50am 3.5ft 11s 6s 18 22 mph 1026.8mb 50f 50f
8:20am 3.5ft 11s 6s 18 22 mph 1026.5mb 50f 50f
7:50am 3.5ft 12s 6s 18 22 mph 1026.6mb 50f 50f
7:20am 3ft 11s 7s 18 22 mph 1026.5mb 50f 50f
6:50am 3.5ft 10s 7s 18 20 mph 1026.6mb 50f 50f
6:20am 3.5ft 10s 7s 18 20 mph 1026.7mb 50f 50f
5:50am 3.5ft 11s 7s 18 20 mph 1026.9mb 50f 51f
5:20am 3.5ft 11s 6s 16 20 mph 1027mb 50f 51f
4:50am 3.5ft 11s 7s 16 18 mph 1027.1mb 50f 50f
4:20am 3ft 11s 7s 16 18 mph 1027mb 50f 51f
3:50am 3.5ft 11s 8s 16 18 mph 1027.1mb 50f 51f
3:20am 3ft 11s 7s 16 18 mph 1027.2mb 50f 51f
2:50am 3.5ft 11s 8s 16 18 mph 1027.3mb 50f 51f
2:20am 3.5ft 11s 8s 16 20 mph 1027.3mb 50f 51f
1:20am 3.5ft 12s 9s 16 18 mph 1027.2mb 50f 51f
12:50am 3.5ft 11s 9s 13 18 mph 1027.3mb 50f 51f
12:20am 3.5ft 11s 10s 13 16 mph 1027.5mb 50f 50f
Sun 10/14 11:20pm 3.5ft 11s 10s 13 16 mph 1027.7mb 50f 51f
10:50pm 3.5ft 11s 10s 13 16 mph 1027.5mb 50f 52f
10:20pm 3.5ft 10s 9s 13 13 mph 1027.4mb 50f 51f
9:50pm 3ft 11s 9s 11 13 mph 1027.4mb 50f 51f
9:20pm 3ft 11s 9s 11 13 mph 1027.3mb 50f 53f
8:20pm 3.5ft 11s 8s 7 9 mph 1027.5mb 50f 51f
6:50pm 3ft 11s 8s 11 13 mph 1027.3mb 50f 52f
6:20pm 3ft 11s 9s 13 16 mph 1027.3mb 50f 52f
5:50pm 2.5ft 11s 8s 9 11 mph 1027.6mb 50f 52f
5:20pm 3ft 13s 9s 9 9 mph 1027.7mb 50f 51f
4:50pm 3ft 11s 8s 9 11 mph 1027.8mb 50f 52f
4:20pm 3.5ft 11s 8s 11 11 mph 1027.8mb 51f 52f
3:50pm 3.5ft 11s 8s 11 11 mph 1028mb 51f 52f
3:20pm 3ft 11s 7s 11 13 mph 1028.2mb 51f 52f
2:50pm 3.5ft 11s 8s 13 16 mph 1028.5mb 51f 52f
2:20pm 3.5ft 11s 8s 11 16 mph 1028.6mb 51f 51f
1:50pm 3.5ft 11s 8s 11 13 mph 1028.7mb 50f 52f
1:20pm 3.5ft 11s 8s 16 18 mph 1028.6mb 50f 52f
12:50pm 3.5ft 11s 9s 16 18 mph 1028.7mb 50f 52f
12:20pm 3.5ft 11s 8s 11 13 mph 1028.8mb 50f 52f
11:50am 3.5ft 13s 9s 13 16 mph 1028.8mb 50f 52f
11:20am 3.5ft 10s 8s 13 16 mph 1028.6mb 50f 52f
10:50am 3.5ft 11s 8s 13 16 mph 1028.6mb 50f 51f
10:20am 3.5ft 9s 7s 11 13 mph 1028.7mb 50f 51f
9:50am 3.5ft 9s 7s 11 13 mph 1028.6mb 50f 51f
9:20am 3.5ft 11s 6s 13 16 mph 1028.5mb 50f 50f
8:50am 3.5ft 10s 7s 11 13 mph 1028.4mb 50f 50f
8:20am 3.5ft 11s 7s 13 16 mph 1028mb 50f 50f
7:50am 3.5ft 10s 6s 16 18 mph 1027.6mb 50f 49f
7:20am 3.5ft 9s 7s 16 18 mph 1027.4mb 50f 50f
6:20am 3.5ft 8s 7s 13 16 mph 1027.3mb 50f 51f
5:50am 3.5ft 9s 7s 13 16 mph 1027.2mb 50f 52f
5:20am 3.5ft 8s 7s 13 16 mph 1027.1mb 50f 51f
4:50am 3.5ft 10s 7s 13 16 mph 1027.2mb 50f 52f
4:20am 3.5ft 8s 7s 11 13 mph 1027.2mb 50f 52f
3:20am 3.5ft 9s 7s 13 16 mph 1026.9mb 50f 51f
1:50am 4ft 8s 7s 9 11 mph 1026.7mb 50f 52f
1:20am 4ft 7s 7s 11 11 mph 1026.5mb 50f 52f
12:50am 4.5ft 8s 7s 11 13 mph 1026.4mb 50f 52f
12:20am 4ft 10s 8s 13 16 mph 1026.4mb 50f 52f
Sat 10/13 11:50pm 4.5ft 9s 8s 9 13 mph 1026.5mb 50f 51f
11:20pm 4.5ft 10s 8s 7 9 mph 1026.4mb 50f 51f
10:50pm 4.5ft 11s 8s 4 7 mph 1026.4mb 50f 52f
10:20pm 4.5ft 10s 8s 7 9 mph 1026.3mb 51f 51f
9:50pm 4.5ft 8s 8s 7 9 mph 1026mb 51f 53f
9:20pm 4.5ft 8s 8s 7 9 mph 1026.1mb 51f 53f
8:50pm 4.5ft 10s 8s 7 7 mph 1026mb 51f 52f
8:20pm 4ft 8s 7s 7 7 mph 1025.8mb 51f 52f
7:50pm 4ft 8s 7s 9 9 mph 1025.8mb 51f 56f
7:20pm 4.5ft 9s 7s 9 11 mph 1025.6mb 51f 54f
6:50pm 4.5ft 8s 7s 9 9 mph 1025.3mb 51f 54f
6:20pm 4.5ft 10s 7s 9 9 mph 1025.1mb 51f 54f
5:50pm 4.5ft 10s 7s 9 11 mph 1025.1mb 51f 54f
5:20pm 4ft 10s 7s 11 11 mph 1025.1mb 51f 54f
4:50pm 4.5ft 8s 7s 9 9 mph 1025.1mb 51f 53f
4:20pm 4.5ft 9s 7s 9 11 mph 1025.2mb 51f 54f
3:20pm 5ft 8s 7s 11 13 mph 1025.3mb 51f 55f
2:50pm 5ft 8s 7s 11 13 mph 1025.4mb 51f 54f
2:20pm 5.5ft 8s 8s 9 11 mph 1025.6mb 51f 54f
1:50pm 5.5ft 8s 8s 7 9 mph 1025.8mb 51f 53f
1:20pm 5ft 9s 8s 9 11 mph 1025.9mb 51f 53f
12:50pm 5ft 10s 8s 9 11 mph 1025.7mb 51f 53f
12:20pm 5.5ft 11s 8s 4 7 mph 1026mb 51f 52f
11:50am 5.5ft 10s 8s 9 11 mph 1025.8mb 50f 51f
11:20am 5.5ft 11s 8s 9 11 mph 1025.9mb 50f 51f
10:50am 6ft 8s 8s 13 16 mph 1025.7mb 50f 51f
10:20am 5ft 11s 8s 16 18 mph 1025.3mb 50f 51f
9:50am 6ft 8s 7s 13 18 mph 1025.3mb 50f 51f
9:20am 6.5ft 11s 7s 13 16 mph 1025.2mb 50f 51f
7:50am 7ft 8s 7s 13 16 mph 1024.3mb 50f 50f
7:20am 6ft 9s 7s 13 18 mph 1024.1mb 50f 50f
6:50am 6ft 9s 7s 11 16 mph 1023.9mb 50f 50f
6:20am 6.5ft 8s 7s 11 13 mph 1023.7mb 50f 51f
5:50am 6.5ft 8s 7s 9 13 mph 1023.5mb 50f 51f
5:20am 7ft 8s 8s 7 11 mph 1023.3mb 50f 50f
4:50am 6.5ft 8s 7s 9 13 mph 1022.9mb 50f 50f
4:20am 7ft 9s 7s 7 9 mph 1022.8mb 50f 50f
3:50am 7ft 9s 7s 4 7 mph 1022.8mb 50f 50f
3:20am 6ft 8s 7s 4 7 mph 1022.7mb 50f 50f
2:50am 6.5ft 8s 7s 2 4 mph 1022.6mb 50f 49f
2:20am 6.5ft 8s 7s 7 11 mph 1022.1mb 50f 50f
1:50am 7ft 8s 7s 11 13 mph 1021.9mb 50f 50f
1:20am 6.5ft 9s 7s 11 13 mph 1021.6mb 50f 51f
12:20am 6.5ft 8s 8s 11 13 mph 1021.3mb 51f 51f
Fri 10/12 11:50pm 7ft 8s 8s 13 16 mph 1020.8mb 51f 51f
11:20pm 5.5ft 8s 7s 16 20 mph 1020.3mb 51f 52f
10:50pm 6ft 8s 8s 18 22 mph 1019.9mb 51f 52f
10:20pm 6ft 8s 8s 16 20 mph 1019.6mb 51f 52f
9:50pm 7ft 8s 8s 16 20 mph 1019.4mb 51f 51f
9:20pm 6.5ft 8s 8s 13 18 mph 1019.1mb 51f 51f
7:50pm 3.5ft 8s 7s 13 16 mph 1018.8mb 51f 51f
7:20pm 3ft 12s 7s 11 16 mph 1018.6mb 51f 51f
6:20pm 2.5ft 9s 6s 7 9 mph 1018.3mb 51f 51f
5:50pm 2.5ft 11s 6s 4 7 mph 1018.3mb 51f 52f
5:20pm 2.5ft 12s 6s 2 4 mph 1018.6mb 51f 52f